sensor_id;sensor_type;location;lat;lon;timestamp;P1;durP1;ratioP1;P2;durP2;ratioP2
6077;SDS011;3067;49.470;10.394;2022-12-15T00:01:47;28.50;;;12.47;;
6077;SDS011;3067;49.470;10.394;2022-12-15T00:04:32;29.90;;;14.43;;
6077;SDS011;3067;49.470;10.394;2022-12-15T00:07:17;40.27;;;14.67;;
6077;SDS011;3067;49.470;10.394;2022-12-15T00:10:02;35.37;;;15.47;;
6077;SDS011;3067;49.470;10.394;2022-12-15T00:12:46;33.93;;;14.20;;
6077;SDS011;3067;49.470;10.394;2022-12-15T00:15:31;34.90;;;14.97;;
6077;SDS011;3067;49.470;10.394;2022-12-15T00:18:17;41.70;;;15.90;;
6077;SDS011;3067;49.470;10.394;2022-12-15T00:21:02;45.40;;;14.77;;
6077;SDS011;3067;49.470;10.394;2022-12-15T00:23:47;31.70;;;13.80;;
6077;SDS011;3067;49.470;10.394;2022-12-15T00:26:31;45.97;;;15.60;;
6077;SDS011;3067;49.470;10.394;2022-12-15T00:29:16;33.77;;;14.00;;
6077;SDS011;3067;49.470;10.394;2022-12-15T00:32:01;35.57;;;14.43;;
6077;SDS011;3067;49.470;10.394;2022-12-15T00:34:47;32.00;;;14.00;;
6077;SDS011;3067;49.470;10.394;2022-12-15T00:37:32;39.87;;;14.93;;
6077;SDS011;3067;49.470;10.394;2022-12-15T00:40:17;42.83;;;15.77;;
6077;SDS011;3067;49.470;10.394;2022-12-15T00:42:44;45.10;;;15.10;;
6077;SDS011;3067;49.470;10.394;2022-12-15T00:45:11;45.93;;;19.97;;
6077;SDS011;3067;49.470;10.394;2022-12-15T00:47:39;47.37;;;19.00;;
6077;SDS011;3067;49.470;10.394;2022-12-15T00:50:07;40.40;;;16.63;;
6077;SDS011;3067;49.470;10.394;2022-12-15T00:52:48;39.07;;;16.70;;
6077;SDS011;3067;49.470;10.394;2022-12-15T00:55:33;47.37;;;16.33;;
6077;SDS011;3067;49.470;10.394;2022-12-15T00:58:17;45.57;;;15.73;;
6077;SDS011;3067;49.470;10.394;2022-12-15T01:01:05;40.70;;;16.20;;
6077;SDS011;3067;49.470;10.394;2022-12-15T01:03:51;42.13;;;15.17;;
6077;SDS011;3067;49.470;10.394;2022-12-15T01:06:37;34.03;;;14.20;;
6077;SDS011;3067;49.470;10.394;2022-12-15T01:09:22;41.97;;;15.73;;
6077;SDS011;3067;49.470;10.394;2022-12-15T01:12:07;40.57;;;14.10;;
6077;SDS011;3067;49.470;10.394;2022-12-15T01:14:52;41.43;;;16.00;;
6077;SDS011;3067;49.470;10.394;2022-12-15T01:17:36;37.00;;;14.57;;
6077;SDS011;3067;49.470;10.394;2022-12-15T01:20:21;40.93;;;15.67;;
6077;SDS011;3067;49.470;10.394;2022-12-15T01:22:50;40.47;;;15.10;;
6077;SDS011;3067;49.470;10.394;2022-12-15T01:25:18;42.83;;;15.90;;
6077;SDS011;3067;49.470;10.394;2022-12-15T01:27:46;38.77;;;14.07;;
6077;SDS011;3067;49.470;10.394;2022-12-15T01:30:15;41.20;;;14.90;;
6077;SDS011;3067;49.470;10.394;2022-12-15T01:32:43;31.47;;;13.43;;
6077;SDS011;3067;49.470;10.394;2022-12-15T01:35:10;41.43;;;14.60;;
6077;SDS011;3067;49.470;10.394;2022-12-15T01:37:38;40.13;;;15.33;;
6077;SDS011;3067;49.470;10.394;2022-12-15T01:40:07;33.33;;;13.70;;
6077;SDS011;3067;49.470;10.394;2022-12-15T01:42:52;34.73;;;14.43;;
6077;SDS011;3067;49.470;10.394;2022-12-15T01:48:06;38.60;;;15.57;;
6077;SDS011;3067;49.470;10.394;2022-12-15T01:50:36;42.10;;;16.60;;
6077;SDS011;3067;49.470;10.394;2022-12-15T01:53:05;34.20;;;14.57;;
6077;SDS011;3067;49.470;10.394;2022-12-15T01:55:34;35.10;;;14.90;;
6077;SDS011;3067;49.470;10.394;2022-12-15T01:58:02;45.10;;;15.10;;
6077;SDS011;3067;49.470;10.394;2022-12-15T02:00:32;35.07;;;13.17;;
6077;SDS011;3067;49.470;10.394;2022-12-15T02:02:59;34.73;;;14.07;;
6077;SDS011;3067;49.470;10.394;2022-12-15T02:05:28;36.77;;;15.03;;
6077;SDS011;3067;49.470;10.394;2022-12-15T02:07:56;35.50;;;14.47;;
6077;SDS011;3067;49.470;10.394;2022-12-15T02:10:25;38.00;;;15.43;;
6077;SDS011;3067;49.470;10.394;2022-12-15T02:12:56;40.67;;;15.80;;
6077;SDS011;3067;49.470;10.394;2022-12-15T02:15:26;34.93;;;14.23;;
6077;SDS011;3067;49.470;10.394;2022-12-15T02:17:56;34.93;;;14.23;;
6077;SDS011;3067;49.470;10.394;2022-12-15T02:23:21;30.50;;;14.40;;
6077;SDS011;3067;49.470;10.394;2022-12-15T02:25:53;35.77;;;13.43;;
6077;SDS011;3067;49.470;10.394;2022-12-15T02:28:28;29.27;;;12.73;;
6077;SDS011;3067;49.470;10.394;2022-12-15T02:30:59;38.80;;;14.20;;
6077;SDS011;3067;49.470;10.394;2022-12-15T02:33:45;33.67;;;13.97;;
6077;SDS011;3067;49.470;10.394;2022-12-15T02:36:17;35.80;;;14.37;;
6077;SDS011;3067;49.470;10.394;2022-12-15T02:38:49;30.70;;;14.13;;
6077;SDS011;3067;49.470;10.394;2022-12-15T02:41:32;37.00;;;13.47;;
6077;SDS011;3067;49.470;10.394;2022-12-15T02:43:59;37.00;;;13.50;;
6077;SDS011;3067;49.470;10.394;2022-12-15T02:46:30;32.07;;;13.77;;
6077;SDS011;3067;49.470;10.394;2022-12-15T02:49:02;34.63;;;14.03;;
6077;SDS011;3067;49.470;10.394;2022-12-15T02:51:37;32.13;;;15.00;;
6077;SDS011;3067;49.470;10.394;2022-12-15T02:54:17;32.87;;;13.57;;
6077;SDS011;3067;49.470;10.394;2022-12-15T02:56:48;32.63;;;14.17;;
6077;SDS011;3067;49.470;10.394;2022-12-15T02:59:19;31.07;;;14.17;;
6077;SDS011;3067;49.470;10.394;2022-12-15T03:01:52;28.87;;;13.60;;
6077;SDS011;3067;49.470;10.394;2022-12-15T03:04:21;33.97;;;14.20;;
6077;SDS011;3067;49.470;10.394;2022-12-15T03:06:52;37.67;;;16.37;;
6077;SDS011;3067;49.470;10.394;2022-12-15T03:09:19;34.27;;;15.20;;
6077;SDS011;3067;49.470;10.394;2022-12-15T03:11:47;36.43;;;15.27;;
6077;SDS011;3067;49.470;10.394;2022-12-15T03:14:14;40.60;;;14.43;;
6077;SDS011;3067;49.470;10.394;2022-12-15T03:16:41;35.73;;;13.50;;
6077;SDS011;3067;49.470;10.394;2022-12-15T03:19:10;39.20;;;15.70;;
6077;SDS011;3067;49.470;10.394;2022-12-15T03:21:37;31.27;;;14.47;;
6077;SDS011;3067;49.470;10.394;2022-12-15T03:24:05;37.27;;;13.67;;
6077;SDS011;3067;49.470;10.394;2022-12-15T03:26:33;33.20;;;13.07;;
6077;SDS011;3067;49.470;10.394;2022-12-15T03:29:00;39.33;;;14.80;;
6077;SDS011;3067;49.470;10.394;2022-12-15T03:31:28;39.07;;;15.00;;
6077;SDS011;3067;49.470;10.394;2022-12-15T03:33:55;33.30;;;13.00;;
6077;SDS011;3067;49.470;10.394;2022-12-15T03:36:24;38.13;;;14.90;;
6077;SDS011;3067;49.470;10.394;2022-12-15T03:38:51;31.87;;;12.90;;
6077;SDS011;3067;49.470;10.394;2022-12-15T03:41:18;33.33;;;13.33;;
6077;SDS011;3067;49.470;10.394;2022-12-15T03:43:45;37.53;;;13.43;;
6077;SDS011;3067;49.470;10.394;2022-12-15T03:46:13;32.80;;;13.77;;
6077;SDS011;3067;49.470;10.394;2022-12-15T03:48:40;33.53;;;14.30;;
6077;SDS011;3067;49.470;10.394;2022-12-15T03:51:07;36.57;;;13.07;;
6077;SDS011;3067;49.470;10.394;2022-12-15T03:53:36;36.73;;;14.00;;
6077;SDS011;3067;49.470;10.394;2022-12-15T03:56:05;35.17;;;13.17;;
6077;SDS011;3067;49.470;10.394;2022-12-15T03:58:32;31.23;;;12.10;;
6077;SDS011;3067;49.470;10.394;2022-12-15T04:01:07;35.47;;;13.23;;
6077;SDS011;3067;49.470;10.394;2022-12-15T04:03:35;31.47;;;13.60;;
6077;SDS011;3067;49.470;10.394;2022-12-15T04:06:02;34.10;;;13.70;;
6077;SDS011;3067;49.470;10.394;2022-12-15T04:08:30;28.77;;;13.40;;
6077;SDS011;3067;49.470;10.394;2022-12-15T04:10:58;35.77;;;14.73;;
6077;SDS011;3067;49.470;10.394;2022-12-15T04:13:26;39.27;;;15.20;;
6077;SDS011;3067;49.470;10.394;2022-12-15T04:15:53;36.83;;;14.57;;
6077;SDS011;3067;49.470;10.394;2022-12-15T04:18:20;48.53;;;20.20;;
6077;SDS011;3067;49.470;10.394;2022-12-15T04:20:48;35.07;;;15.73;;
6077;SDS011;3067;49.470;10.394;2022-12-15T04:23:15;32.20;;;14.43;;
6077;SDS011;3067;49.470;10.394;2022-12-15T04:25:42;42.00;;;14.27;;
6077;SDS011;3067;49.470;10.394;2022-12-15T04:28:28;39.67;;;15.07;;
6077;SDS011;3067;49.470;10.394;2022-12-15T04:31:14;33.67;;;14.80;;
6077;SDS011;3067;49.470;10.394;2022-12-15T04:34:00;33.67;;;15.30;;
6077;SDS011;3067;49.470;10.394;2022-12-15T04:36:46;31.17;;;13.53;;
6077;SDS011;3067;49.470;10.394;2022-12-15T04:39:32;32.37;;;13.53;;
6077;SDS011;3067;49.470;10.394;2022-12-15T04:42:17;36.60;;;14.20;;
6077;SDS011;3067;49.470;10.394;2022-12-15T04:45:04;36.57;;;15.37;;
6077;SDS011;3067;49.470;10.394;2022-12-15T04:47:49;32.50;;;13.93;;
6077;SDS011;3067;49.470;10.394;2022-12-15T04:50:34;39.77;;;13.60;;
6077;SDS011;3067;49.470;10.394;2022-12-15T04:53:19;31.77;;;12.43;;
6077;SDS011;3067;49.470;10.394;2022-12-15T04:56:08;31.77;;;13.87;;
6077;SDS011;3067;49.470;10.394;2022-12-15T04:58:53;34.40;;;14.67;;
6077;SDS011;3067;49.470;10.394;2022-12-15T05:01:39;32.30;;;14.30;;
6077;SDS011;3067;49.470;10.394;2022-12-15T05:04:24;31.33;;;13.17;;
6077;SDS011;3067;49.470;10.394;2022-12-15T05:07:09;33.40;;;14.13;;
6077;SDS011;3067;49.470;10.394;2022-12-15T05:09:54;33.77;;;13.17;;
6077;SDS011;3067;49.470;10.394;2022-12-15T05:12:39;32.63;;;12.63;;
6077;SDS011;3067;49.470;10.394;2022-12-15T05:15:24;28.33;;;12.20;;
6077;SDS011;3067;49.470;10.394;2022-12-15T05:18:11;36.53;;;14.20;;
6077;SDS011;3067;49.470;10.394;2022-12-15T05:20:56;26.90;;;12.57;;
6077;SDS011;3067;49.470;10.394;2022-12-15T05:23:41;31.83;;;13.53;;
6077;SDS011;3067;49.470;10.394;2022-12-15T05:26:26;32.50;;;13.30;;
6077;SDS011;3067;49.470;10.394;2022-12-15T05:29:11;35.27;;;14.53;;
6077;SDS011;3067;49.470;10.394;2022-12-15T05:31:56;32.47;;;13.80;;
6077;SDS011;3067;49.470;10.394;2022-12-15T05:34:25;32.77;;;13.70;;
6077;SDS011;3067;49.470;10.394;2022-12-15T05:36:54;36.80;;;13.07;;
6077;SDS011;3067;49.470;10.394;2022-12-15T05:39:22;34.93;;;14.10;;
6077;SDS011;3067;49.470;10.394;2022-12-15T05:41:49;34.03;;;12.87;;
6077;SDS011;3067;49.470;10.394;2022-12-15T05:44:17;32.13;;;14.07;;
6077;SDS011;3067;49.470;10.394;2022-12-15T05:46:45;29.93;;;12.73;;
6077;SDS011;3067;49.470;10.394;2022-12-15T05:49:13;38.03;;;14.80;;
6077;SDS011;3067;49.470;10.394;2022-12-15T05:51:42;30.97;;;13.50;;
6077;SDS011;3067;49.470;10.394;2022-12-15T05:54:10;33.10;;;13.87;;
6077;SDS011;3067;49.470;10.394;2022-12-15T05:56:37;31.83;;;13.70;;
6077;SDS011;3067;49.470;10.394;2022-12-15T05:59:05;31.97;;;12.93;;
6077;SDS011;3067;49.470;10.394;2022-12-15T06:01:32;35.10;;;13.80;;
6077;SDS011;3067;49.470;10.394;2022-12-15T06:04:00;31.67;;;12.70;;
6077;SDS011;3067;49.470;10.394;2022-12-15T06:06:27;31.87;;;13.40;;
6077;SDS011;3067;49.470;10.394;2022-12-15T06:08:56;35.23;;;13.53;;
6077;SDS011;3067;49.470;10.394;2022-12-15T06:11:23;37.97;;;14.03;;
6077;SDS011;3067;49.470;10.394;2022-12-15T06:13:51;33.37;;;12.77;;
6077;SDS011;3067;49.470;10.394;2022-12-15T06:16:19;32.50;;;13.30;;
6077;SDS011;3067;49.470;10.394;2022-12-15T06:18:48;35.57;;;13.03;;
6077;SDS011;3067;49.470;10.394;2022-12-15T06:21:17;32.83;;;12.80;;
6077;SDS011;3067;49.470;10.394;2022-12-15T06:23:45;35.67;;;13.63;;
6077;SDS011;3067;49.470;10.394;2022-12-15T06:26:16;37.97;;;14.63;;
6077;SDS011;3067;49.470;10.394;2022-12-15T06:28:44;27.90;;;13.50;;
6077;SDS011;3067;49.470;10.394;2022-12-15T06:31:12;27.47;;;12.00;;
6077;SDS011;3067;49.470;10.394;2022-12-15T06:33:39;26.03;;;11.20;;
6077;SDS011;3067;49.470;10.394;2022-12-15T06:36:08;28.17;;;13.00;;
6077;SDS011;3067;49.470;10.394;2022-12-15T06:38:35;33.40;;;12.90;;
6077;SDS011;3067;49.470;10.394;2022-12-15T06:41:03;36.97;;;12.87;;
6077;SDS011;3067;49.470;10.394;2022-12-15T06:43:33;33.53;;;14.87;;
6077;SDS011;3067;49.470;10.394;2022-12-15T06:46:00;33.03;;;13.83;;
6077;SDS011;3067;49.470;10.394;2022-12-15T06:48:27;40.17;;;14.23;;
6077;SDS011;3067;49.470;10.394;2022-12-15T06:50:55;34.67;;;14.40;;
6077;SDS011;3067;49.470;10.394;2022-12-15T06:53:23;37.90;;;15.03;;
6077;SDS011;3067;49.470;10.394;2022-12-15T06:55:50;40.47;;;16.00;;
6077;SDS011;3067;49.470;10.394;2022-12-15T06:58:18;39.67;;;15.50;;
6077;SDS011;3067;49.470;10.394;2022-12-15T07:00:46;38.47;;;15.33;;
6077;SDS011;3067;49.470;10.394;2022-12-15T07:03:14;42.17;;;16.10;;
6077;SDS011;3067;49.470;10.394;2022-12-15T07:05:42;45.17;;;16.57;;
6077;SDS011;3067;49.470;10.394;2022-12-15T07:08:09;36.40;;;14.90;;
6077;SDS011;3067;49.470;10.394;2022-12-15T07:10:37;42.23;;;15.20;;
6077;SDS011;3067;49.470;10.394;2022-12-15T07:13:05;38.60;;;14.23;;
6077;SDS011;3067;49.470;10.394;2022-12-15T07:15:32;37.17;;;14.80;;
6077;SDS011;3067;49.470;10.394;2022-12-15T07:18:02;49.20;;;16.00;;
6077;SDS011;3067;49.470;10.394;2022-12-15T07:20:29;27.87;;;12.97;;
6077;SDS011;3067;49.470;10.394;2022-12-15T07:22:57;36.37;;;15.03;;
6077;SDS011;3067;49.470;10.394;2022-12-15T07:25:24;34.13;;;14.93;;
6077;SDS011;3067;49.470;10.394;2022-12-15T07:27:52;37.40;;;16.70;;
6077;SDS011;3067;49.470;10.394;2022-12-15T07:30:20;35.77;;;14.67;;
6077;SDS011;3067;49.470;10.394;2022-12-15T07:32:47;38.00;;;15.63;;
6077;SDS011;3067;49.470;10.394;2022-12-15T07:35:16;41.03;;;15.10;;
6077;SDS011;3067;49.470;10.394;2022-12-15T07:37:44;32.83;;;13.90;;
6077;SDS011;3067;49.470;10.394;2022-12-15T07:40:11;35.00;;;14.50;;
6077;SDS011;3067;49.470;10.394;2022-12-15T07:42:39;31.67;;;13.47;;
6077;SDS011;3067;49.470;10.394;2022-12-15T07:45:06;29.57;;;13.07;;
6077;SDS011;3067;49.470;10.394;2022-12-15T07:47:34;30.57;;;13.60;;
6077;SDS011;3067;49.470;10.394;2022-12-15T07:50:02;26.20;;;13.30;;
6077;SDS011;3067;49.470;10.394;2022-12-15T07:52:31;29.23;;;13.17;;
6077;SDS011;3067;49.470;10.394;2022-12-15T07:54:58;31.87;;;13.77;;
6077;SDS011;3067;49.470;10.394;2022-12-15T07:57:26;36.43;;;13.80;;
6077;SDS011;3067;49.470;10.394;2022-12-15T07:59:53;35.63;;;14.47;;
6077;SDS011;3067;49.470;10.394;2022-12-15T08:02:21;33.03;;;14.17;;
6077;SDS011;3067;49.470;10.394;2022-12-15T08:04:48;30.70;;;14.23;;
6077;SDS011;3067;49.470;10.394;2022-12-15T08:07:15;34.27;;;14.10;;
6077;SDS011;3067;49.470;10.394;2022-12-15T08:09:44;28.87;;;12.43;;
6077;SDS011;3067;49.470;10.394;2022-12-15T08:12:12;37.20;;;14.93;;
6077;SDS011;3067;49.470;10.394;2022-12-15T08:14:41;28.07;;;13.40;;
6077;SDS011;3067;49.470;10.394;2022-12-15T08:17:08;35.00;;;13.97;;
6077;SDS011;3067;49.470;10.394;2022-12-15T08:19:35;30.23;;;12.70;;
6077;SDS011;3067;49.470;10.394;2022-12-15T08:22:03;32.40;;;13.40;;
6077;SDS011;3067;49.470;10.394;2022-12-15T08:24:30;35.00;;;14.70;;
6077;SDS011;3067;49.470;10.394;2022-12-15T08:26:59;38.33;;;15.27;;
6077;SDS011;3067;49.470;10.394;2022-12-15T08:29:26;31.33;;;14.43;;
6077;SDS011;3067;49.470;10.394;2022-12-15T08:31:53;41.87;;;15.27;;
6077;SDS011;3067;49.470;10.394;2022-12-15T08:34:22;37.70;;;14.57;;
6077;SDS011;3067;49.470;10.394;2022-12-15T08:36:49;35.13;;;15.50;;
6077;SDS011;3067;49.470;10.394;2022-12-15T08:39:16;35.73;;;15.47;;
6077;SDS011;3067;49.470;10.394;2022-12-15T08:41:44;37.87;;;16.73;;
6077;SDS011;3067;49.470;10.394;2022-12-15T08:44:13;40.70;;;16.00;;
6077;SDS011;3067;49.470;10.394;2022-12-15T08:46:40;36.80;;;15.53;;
6077;SDS011;3067;49.470;10.394;2022-12-15T08:49:08;37.47;;;16.33;;
6077;SDS011;3067;49.470;10.394;2022-12-15T08:51:36;41.43;;;16.50;;
6077;SDS011;3067;49.470;10.394;2022-12-15T08:54:03;41.43;;;15.10;;
6077;SDS011;3067;49.470;10.394;2022-12-15T08:56:30;42.00;;;14.73;;
6077;SDS011;3067;49.470;10.394;2022-12-15T08:58:58;37.97;;;16.33;;
6077;SDS011;3067;49.470;10.394;2022-12-15T09:01:28;34.70;;;14.60;;
6077;SDS011;3067;49.470;10.394;2022-12-15T09:03:56;35.70;;;14.70;;
6077;SDS011;3067;49.470;10.394;2022-12-15T09:06:24;37.00;;;15.40;;
6077;SDS011;3067;49.470;10.394;2022-12-15T09:08:53;39.60;;;14.93;;
6077;SDS011;3067;49.470;10.394;2022-12-15T09:11:21;39.07;;;14.13;;
6077;SDS011;3067;49.470;10.394;2022-12-15T09:13:49;31.50;;;13.37;;
6077;SDS011;3067;49.470;10.394;2022-12-15T09:16:16;36.67;;;16.07;;
6077;SDS011;3067;49.470;10.394;2022-12-15T09:18:46;33.20;;;14.30;;
6077;SDS011;3067;49.470;10.394;2022-12-15T09:21:14;35.47;;;15.00;;
6077;SDS011;3067;49.470;10.394;2022-12-15T09:23:45;36.83;;;15.10;;
6077;SDS011;3067;49.470;10.394;2022-12-15T09:26:13;35.50;;;14.70;;
6077;SDS011;3067;49.470;10.394;2022-12-15T09:28:41;38.17;;;16.07;;
6077;SDS011;3067;49.470;10.394;2022-12-15T09:31:10;39.63;;;15.20;;
6077;SDS011;3067;49.470;10.394;2022-12-15T09:33:37;37.43;;;15.63;;
6077;SDS011;3067;49.470;10.394;2022-12-15T09:36:07;40.93;;;16.30;;
6077;SDS011;3067;49.470;10.394;2022-12-15T09:38:35;39.33;;;14.23;;
6077;SDS011;3067;49.470;10.394;2022-12-15T09:41:06;31.00;;;14.67;;
6077;SDS011;3067;49.470;10.394;2022-12-15T09:43:34;32.47;;;13.80;;
6077;SDS011;3067;49.470;10.394;2022-12-15T09:46:05;36.07;;;13.93;;
6077;SDS011;3067;49.470;10.394;2022-12-15T09:48:35;33.20;;;14.13;;
6077;SDS011;3067;49.470;10.394;2022-12-15T09:51:04;36.27;;;15.53;;
6077;SDS011;3067;49.470;10.394;2022-12-15T09:53:35;37.50;;;15.37;;
6077;SDS011;3067;49.470;10.394;2022-12-15T09:56:03;37.77;;;14.17;;
6077;SDS011;3067;49.470;10.394;2022-12-15T09:58:37;36.67;;;14.80;;
6077;SDS011;3067;49.470;10.394;2022-12-15T10:01:11;37.70;;;14.80;;
6077;SDS011;3067;49.470;10.394;2022-12-15T10:03:43;36.80;;;15.70;;
6077;SDS011;3067;49.470;10.394;2022-12-15T10:06:15;43.30;;;17.87;;
6077;SDS011;3067;49.470;10.394;2022-12-15T10:08:45;47.47;;;16.63;;
6077;SDS011;3067;49.470;10.394;2022-12-15T10:11:26;36.30;;;15.97;;
6077;SDS011;3067;49.470;10.394;2022-12-15T10:14:01;40.70;;;17.50;;
6077;SDS011;3067;49.470;10.394;2022-12-15T10:16:33;42.73;;;16.87;;
6077;SDS011;3067;49.470;10.394;2022-12-15T10:19:03;36.73;;;16.43;;
6077;SDS011;3067;49.470;10.394;2022-12-15T10:21:31;43.97;;;16.93;;
6077;SDS011;3067;49.470;10.394;2022-12-15T10:24:06;37.50;;;15.30;;
6077;SDS011;3067;49.470;10.394;2022-12-15T10:26:36;38.80;;;15.03;;
6077;SDS011;3067;49.470;10.394;2022-12-15T10:29:07;35.53;;;15.17;;
6077;SDS011;3067;49.470;10.394;2022-12-15T10:31:40;38.40;;;16.93;;
6077;SDS011;3067;49.470;10.394;2022-12-15T10:34:25;41.20;;;16.40;;
6077;SDS011;3067;49.470;10.394;2022-12-15T10:36:53;35.63;;;15.37;;
6077;SDS011;3067;49.470;10.394;2022-12-15T10:39:22;34.23;;;14.23;;
6077;SDS011;3067;49.470;10.394;2022-12-15T10:42:10;34.67;;;15.53;;
6077;SDS011;3067;49.470;10.394;2022-12-15T10:44:38;35.07;;;16.20;;
6077;SDS011;3067;49.470;10.394;2022-12-15T10:47:10;33.90;;;15.40;;
6077;SDS011;3067;49.470;10.394;2022-12-15T10:49:38;32.27;;;14.60;;
6077;SDS011;3067;49.470;10.394;2022-12-15T10:52:10;32.87;;;17.03;;
6077;SDS011;3067;49.470;10.394;2022-12-15T10:54:44;34.83;;;14.73;;
6077;SDS011;3067;49.470;10.394;2022-12-15T10:57:14;41.20;;;17.30;;
6077;SDS011;3067;49.470;10.394;2022-12-15T10:59:42;44.67;;;18.17;;
6077;SDS011;3067;49.470;10.394;2022-12-15T11:02:29;40.93;;;17.47;;
6077;SDS011;3067;49.470;10.394;2022-12-15T11:05:01;39.50;;;17.13;;
6077;SDS011;3067;49.470;10.394;2022-12-15T11:07:31;32.87;;;16.00;;
6077;SDS011;3067;49.470;10.394;2022-12-15T11:10:02;39.33;;;18.50;;
6077;SDS011;3067;49.470;10.394;2022-12-15T11:12:34;44.27;;;18.03;;
6077;SDS011;3067;49.470;10.394;2022-12-15T11:15:37;40.53;;;17.37;;
6077;SDS011;3067;49.470;10.394;2022-12-15T11:18:07;43.37;;;18.70;;
6077;SDS011;3067;49.470;10.394;2022-12-15T11:20:37;42.13;;;17.97;;
6077;SDS011;3067;49.470;10.394;2022-12-15T11:23:08;37.73;;;18.00;;
6077;SDS011;3067;49.470;10.394;2022-12-15T11:25:40;46.20;;;18.90;;
6077;SDS011;3067;49.470;10.394;2022-12-15T11:28:10;39.40;;;17.97;;
6077;SDS011;3067;49.470;10.394;2022-12-15T11:30:41;45.70;;;18.33;;
6077;SDS011;3067;49.470;10.394;2022-12-15T11:33:11;41.03;;;17.60;;
6077;SDS011;3067;49.470;10.394;2022-12-15T11:35:44;46.47;;;19.00;;
6077;SDS011;3067;49.470;10.394;2022-12-15T11:38:15;39.40;;;18.70;;
6077;SDS011;3067;49.470;10.394;2022-12-15T11:40:47;43.70;;;20.17;;
6077;SDS011;3067;49.470;10.394;2022-12-15T11:43:22;42.97;;;18.73;;
6077;SDS011;3067;49.470;10.394;2022-12-15T11:45:57;45.07;;;19.60;;
6077;SDS011;3067;49.470;10.394;2022-12-15T11:48:30;43.17;;;20.17;;
6077;SDS011;3067;49.470;10.394;2022-12-15T11:51:00;45.30;;;18.97;;
6077;SDS011;3067;49.470;10.394;2022-12-15T11:56:26;42.33;;;19.03;;
6077;SDS011;3067;49.470;10.394;2022-12-15T11:59:03;52.53;;;20.70;;
6077;SDS011;3067;49.470;10.394;2022-12-15T12:01:42;46.27;;;18.67;;
6077;SDS011;3067;49.470;10.394;2022-12-15T12:04:14;44.93;;;20.00;;
6077;SDS011;3067;49.470;10.394;2022-12-15T12:06:46;43.83;;;20.37;;
6077;SDS011;3067;49.470;10.394;2022-12-15T12:09:20;43.33;;;20.40;;
6077;SDS011;3067;49.470;10.394;2022-12-15T12:11:52;49.87;;;21.60;;
6077;SDS011;3067;49.470;10.394;2022-12-15T12:14:26;46.13;;;20.10;;
6077;SDS011;3067;49.470;10.394;2022-12-15T12:17:00;47.13;;;20.70;;
6077;SDS011;3067;49.470;10.394;2022-12-15T12:19:30;45.80;;;21.10;;
6077;SDS011;3067;49.470;10.394;2022-12-15T12:21:59;47.77;;;20.63;;
6077;SDS011;3067;49.470;10.394;2022-12-15T12:24:29;49.43;;;21.60;;
6077;SDS011;3067;49.470;10.394;2022-12-15T12:26:58;46.23;;;21.20;;
6077;SDS011;3067;49.470;10.394;2022-12-15T12:29:27;51.67;;;20.90;;
6077;SDS011;3067;49.470;10.394;2022-12-15T12:31:57;43.20;;;19.13;;
6077;SDS011;3067;49.470;10.394;2022-12-15T12:34:29;44.77;;;19.90;;
6077;SDS011;3067;49.470;10.394;2022-12-15T12:37:00;48.37;;;20.43;;
6077;SDS011;3067;49.470;10.394;2022-12-15T12:39:30;45.97;;;20.57;;
6077;SDS011;3067;49.470;10.394;2022-12-15T12:42:02;45.40;;;19.83;;
6077;SDS011;3067;49.470;10.394;2022-12-15T12:44:32;49.53;;;20.30;;
6077;SDS011;3067;49.470;10.394;2022-12-15T12:47:03;47.63;;;20.17;;
6077;SDS011;3067;49.470;10.394;2022-12-15T12:49:35;43.03;;;18.37;;
6077;SDS011;3067;49.470;10.394;2022-12-15T12:52:03;45.90;;;19.37;;
6077;SDS011;3067;49.470;10.394;2022-12-15T12:54:42;46.33;;;19.63;;
6077;SDS011;3067;49.470;10.394;2022-12-15T12:59:55;43.13;;;19.00;;
6077;SDS011;3067;49.470;10.394;2022-12-15T13:02:44;47.37;;;20.43;;
6077;SDS011;3067;49.470;10.394;2022-12-15T13:05:22;46.57;;;19.83;;
6077;SDS011;3067;49.470;10.394;2022-12-15T13:07:52;46.37;;;19.93;;
6077;SDS011;3067;49.470;10.394;2022-12-15T13:10:20;49.90;;;21.87;;
6077;SDS011;3067;49.470;10.394;2022-12-15T13:12:49;50.77;;;22.30;;
6077;SDS011;3067;49.470;10.394;2022-12-15T13:15:21;42.63;;;20.73;;
6077;SDS011;3067;49.470;10.394;2022-12-15T13:17:55;46.27;;;20.67;;
6077;SDS011;3067;49.470;10.394;2022-12-15T13:20:25;50.30;;;21.63;;
6077;SDS011;3067;49.470;10.394;2022-12-15T13:22:54;50.97;;;22.53;;
6077;SDS011;3067;49.470;10.394;2022-12-15T13:28:22;47.50;;;19.70;;
6077;SDS011;3067;49.470;10.394;2022-12-15T13:33:44;45.53;;;19.17;;
6077;SDS011;3067;49.470;10.394;2022-12-15T13:38:58;46.23;;;20.70;;
6077;SDS011;3067;49.470;10.394;2022-12-15T13:41:26;50.20;;;21.87;;
6077;SDS011;3067;49.470;10.394;2022-12-15T13:43:53;51.30;;;21.67;;
6077;SDS011;3067;49.470;10.394;2022-12-15T13:46:22;50.60;;;21.60;;
6077;SDS011;3067;49.470;10.394;2022-12-15T13:48:52;46.73;;;21.27;;
6077;SDS011;3067;49.470;10.394;2022-12-15T13:51:24;44.27;;;20.67;;
6077;SDS011;3067;49.470;10.394;2022-12-15T13:53:55;48.27;;;20.43;;
6077;SDS011;3067;49.470;10.394;2022-12-15T13:56:27;43.17;;;19.37;;
6077;SDS011;3067;49.470;10.394;2022-12-15T13:59:03;42.07;;;20.00;;
6077;SDS011;3067;49.470;10.394;2022-12-15T14:01:30;44.33;;;19.97;;
6077;SDS011;3067;49.470;10.394;2022-12-15T14:04:04;47.13;;;20.53;;
6077;SDS011;3067;49.470;10.394;2022-12-15T14:06:35;45.03;;;19.90;;
6077;SDS011;3067;49.470;10.394;2022-12-15T14:09:03;42.80;;;20.00;;
6077;SDS011;3067;49.470;10.394;2022-12-15T14:11:32;43.70;;;20.40;;
6077;SDS011;3067;49.470;10.394;2022-12-15T14:14:00;38.10;;;18.60;;
6077;SDS011;3067;49.470;10.394;2022-12-15T14:16:28;45.43;;;19.47;;
6077;SDS011;3067;49.470;10.394;2022-12-15T14:19:09;45.17;;;19.77;;
6077;SDS011;3067;49.470;10.394;2022-12-15T14:21:38;44.37;;;18.63;;
6077;SDS011;3067;49.470;10.394;2022-12-15T14:24:17;54.07;;;19.23;;
6077;SDS011;3067;49.470;10.394;2022-12-15T14:26:48;46.87;;;18.70;;
6077;SDS011;3067;49.470;10.394;2022-12-15T14:29:15;42.93;;;18.70;;
6077;SDS011;3067;49.470;10.394;2022-12-15T14:31:43;40.50;;;17.90;;
6077;SDS011;3067;49.470;10.394;2022-12-15T14:34:14;50.03;;;19.63;;
6077;SDS011;3067;49.470;10.394;2022-12-15T14:36:42;41.73;;;18.27;;
6077;SDS011;3067;49.470;10.394;2022-12-15T14:39:11;50.70;;;19.13;;
6077;SDS011;3067;49.470;10.394;2022-12-15T14:41:42;44.07;;;18.90;;
6077;SDS011;3067;49.470;10.394;2022-12-15T14:44:14;49.47;;;19.33;;
6077;SDS011;3067;49.470;10.394;2022-12-15T14:46:44;42.27;;;18.50;;
6077;SDS011;3067;49.470;10.394;2022-12-15T14:49:16;37.17;;;17.83;;
6077;SDS011;3067;49.470;10.394;2022-12-15T14:51:45;42.30;;;18.57;;
6077;SDS011;3067;49.470;10.394;2022-12-15T14:54:24;44.50;;;18.87;;
6077;SDS011;3067;49.470;10.394;2022-12-15T14:56:55;38.40;;;17.90;;
6077;SDS011;3067;49.470;10.394;2022-12-15T14:59:22;39.57;;;17.90;;
6077;SDS011;3067;49.470;10.394;2022-12-15T15:01:50;48.30;;;18.00;;
6077;SDS011;3067;49.470;10.394;2022-12-15T15:04:24;38.20;;;16.50;;
6077;SDS011;3067;49.470;10.394;2022-12-15T15:06:53;37.50;;;17.23;;
6077;SDS011;3067;49.470;10.394;2022-12-15T15:09:22;42.03;;;17.70;;
6077;SDS011;3067;49.470;10.394;2022-12-15T15:11:51;42.23;;;17.20;;
6077;SDS011;3067;49.470;10.394;2022-12-15T15:14:21;45.87;;;18.67;;
6077;SDS011;3067;49.470;10.394;2022-12-15T15:16:57;46.43;;;18.87;;
6077;SDS011;3067;49.470;10.394;2022-12-15T15:19:27;39.70;;;17.43;;
6077;SDS011;3067;49.470;10.394;2022-12-15T15:21:55;40.57;;;17.30;;